createdAt,value
2022-08-03T00:01:50.771Z,11.77
2022-08-03T00:04:17.508Z,12.35
2022-08-03T00:06:44.087Z,12.57
2022-08-03T00:09:11.152Z,13.50
2022-08-03T00:11:37.981Z,14.27
2022-08-03T00:14:05.674Z,12.65
2022-08-03T00:16:32.441Z,12.88
2022-08-03T00:19:00.997Z,13.65
2022-08-03T00:21:28.490Z,12.50
2022-08-03T00:23:55.070Z,14.82
2022-08-03T00:26:21.879Z,13.23
2022-08-03T00:28:49.018Z,14.00
2022-08-03T00:31:15.762Z,13.50
2022-08-03T00:33:59.034Z,14.02
2022-08-03T00:36:28.321Z,13.77
2022-08-03T00:38:55.390Z,13.45
2022-08-03T00:41:21.912Z,13.32
2022-08-03T00:43:48.490Z,13.15
2022-08-03T00:46:20.535Z,13.27
2022-08-03T00:48:51.052Z,13.70
2022-08-03T00:51:19.044Z,13.90
2022-08-03T00:53:45.970Z,14.90
2022-08-03T00:56:16.595Z,14.50
2022-08-03T00:58:46.886Z,13.20
2022-08-03T01:01:13.822Z,14.18
2022-08-03T01:03:40.681Z,14.00
2022-08-03T01:06:20.740Z,14.88
2022-08-03T01:09:12.743Z,14.00
2022-08-03T01:12:01.882Z,14.10
2022-08-03T01:14:42.295Z,13.88
2022-08-03T01:17:20.633Z,13.55
2022-08-03T01:19:58.527Z,13.93
2022-08-03T01:22:49.964Z,14.18
2022-08-03T01:25:22.402Z,13.20
2022-08-03T01:28:03.571Z,13.65
2022-08-03T01:30:31.864Z,14.30
2022-08-03T01:33:05.291Z,13.32
2022-08-03T01:38:18.596Z,13.27
2022-08-03T01:40:47.053Z,13.50
2022-08-03T01:44:26.732Z,14.50
2022-08-03T01:46:04.367Z,13.85
2022-08-03T01:48:32.024Z,14.40
2022-08-03T01:50:59.598Z,14.63
2022-08-03T01:53:26.333Z,14.65
2022-08-03T01:55:55.068Z,14.63
2022-08-03T01:58:22.275Z,13.90
2022-08-03T02:00:49.792Z,14.57
2022-08-03T02:03:16.657Z,15.15
2022-08-03T02:05:45.397Z,15.60
2022-08-03T02:08:13.247Z,16.55
2022-08-03T02:10:41.738Z,16.08
2022-08-03T02:13:08.908Z,15.35
2022-08-03T02:15:37.295Z,15.70
2022-08-03T02:18:06.360Z,14.88
2022-08-03T02:20:36.210Z,16.27
2022-08-03T02:23:02.709Z,15.48
2022-08-03T02:25:30.411Z,15.57
2022-08-03T02:28:07.057Z,15.80
2022-08-03T02:30:40.063Z,16.63
2022-08-03T02:33:18.296Z,16.48
2022-08-03T02:35:45.276Z,15.65
2022-08-03T02:38:12.794Z,17.27
2022-08-03T02:40:39.659Z,15.35
2022-08-03T02:43:09.322Z,14.88
2022-08-03T02:45:37.121Z,15.20
2022-08-03T02:48:05.211Z,16.30
2022-08-03T02:50:32.397Z,15.73
2022-08-03T02:52:59.970Z,16.95
2022-08-03T02:55:27.438Z,16.70
2022-08-03T02:57:54.648Z,16.17
2022-08-03T03:00:27.365Z,16.50
2022-08-03T03:02:57.702Z,17.50
2022-08-03T03:05:54.518Z,17.80
2022-08-03T03:08:17.974Z,17.60
2022-08-03T03:10:46.013Z,16.50
2022-08-03T03:13:14.210Z,16.65
2022-08-03T03:15:41.837Z,15.68
2022-08-03T03:18:10.044Z,16.70
2022-08-03T03:20:37.639Z,17.27
2022-08-03T03:23:05.241Z,17.48
2022-08-03T03:25:32.518Z,16.35
2022-08-03T03:28:00.471Z,17.00
2022-08-03T03:30:28.025Z,16.40
2022-08-03T03:32:54.705Z,17.25
2022-08-03T03:35:21.460Z,17.02
2022-08-03T03:37:48.000Z,16.98
2022-08-03T03:40:14.727Z,17.23
2022-08-03T03:42:41.477Z,16.77
2022-08-03T03:45:08.631Z,16.70
2022-08-03T03:47:35.673Z,18.13
2022-08-03T03:50:03.819Z,17.67
2022-08-03T03:52:31.640Z,18.27
2022-08-03T03:55:01.026Z,16.95
2022-08-03T03:57:28.239Z,17.75
2022-08-03T03:59:54.737Z,17.08
2022-08-03T04:02:21.231Z,16.95
2022-08-03T04:05:06.246Z,17.83
2022-08-03T04:08:11.971Z,18.17
2022-08-03T04:10:58.684Z,16.25
2022-08-03T04:13:29.628Z,15.20
2022-08-03T04:15:56.900Z,16.08
2022-08-03T04:18:24.486Z,16.52
2022-08-03T04:20:51.996Z,14.88
2022-08-03T04:23:21.414Z,15.00
2022-08-03T04:25:49.207Z,14.73
2022-08-03T04:28:31.321Z,14.25
2022-08-03T04:30:59.895Z,14.98
2022-08-03T04:33:29.556Z,13.07
2022-08-03T04:36:02.636Z,11.98
2022-08-03T04:38:31.738Z,12.23
2022-08-03T04:40:59.496Z,12.02
2022-08-03T04:43:26.866Z,12.13
2022-08-03T04:45:54.002Z,10.88
2022-08-03T04:48:20.674Z,11.85
2022-08-03T04:50:47.919Z,11.15
2022-08-03T04:53:14.431Z,11.23
2022-08-03T04:55:40.937Z,10.30
2022-08-03T04:58:07.454Z,10.00
2022-08-03T05:00:33.954Z,10.25
2022-08-03T05:03:00.467Z,9.15
2022-08-03T05:05:27.016Z,9.30
2022-08-03T05:08:13.505Z,8.60
2022-08-03T05:10:40.560Z,8.82
2022-08-03T05:13:11.922Z,8.18
2022-08-03T05:15:42.941Z,8.48
2022-08-03T05:18:14.009Z,8.82
2022-08-03T05:20:41.147Z,8.57
2022-08-03T05:23:07.703Z,7.40
2022-08-03T05:25:34.248Z,8.27
2022-08-03T05:28:00.748Z,8.10
2022-08-03T05:30:33.571Z,7.00
2022-08-03T05:33:01.973Z,7.50
2022-08-03T05:35:57.883Z,7.85
2022-08-03T05:38:28.126Z,7.50
2022-08-03T05:41:22.096Z,7.63
2022-08-03T05:43:47.438Z,6.93
2022-08-03T05:46:14.033Z,7.30
2022-08-03T05:48:41.381Z,7.30
2022-08-03T05:51:11.193Z,7.50
2022-08-03T05:53:38.398Z,6.97
2022-08-03T05:56:13.800Z,6.70
2022-08-03T05:58:46.161Z,6.22
2022-08-03T06:01:12.871Z,7.18
2022-08-03T06:03:39.480Z,6.43
2022-08-03T06:06:06.098Z,5.20
2022-08-03T06:08:32.597Z,5.25
2022-08-03T06:10:59.096Z,5.97
2022-08-03T06:13:25.656Z,6.20
2022-08-03T06:15:52.153Z,5.10
2022-08-03T06:18:18.769Z,4.13
2022-08-03T06:20:45.327Z,4.20
2022-08-03T06:23:16.220Z,3.50
2022-08-03T06:25:44.566Z,3.10
2022-08-03T06:28:35.210Z,3.35
2022-08-03T06:30:58.961Z,3.10
2022-08-03T06:33:26.452Z,3.03
2022-08-03T06:36:12.971Z,3.13
2022-08-03T06:38:39.470Z,2.95
2022-08-03T06:41:06.067Z,3.00
2022-08-03T06:43:35.903Z,2.70
2022-08-03T06:46:02.530Z,2.92
2022-08-03T06:48:29.113Z,2.53
2022-08-03T06:50:55.653Z,3.00
2022-08-03T06:53:22.493Z,2.55
2022-08-03T06:55:54.267Z,2.88
2022-08-03T06:58:21.329Z,2.30
2022-08-03T07:00:48.045Z,2.30
2022-08-03T07:03:15.104Z,2.30
2022-08-03T07:05:42.321Z,2.50
2022-08-03T07:08:08.887Z,2.17
2022-08-03T07:10:35.397Z,2.35
2022-08-03T07:13:01.893Z,2.83
2022-08-03T07:15:55.632Z,2.50
2022-08-03T07:18:14.909Z,3.00
2022-08-03T07:20:41.449Z,2.60
2022-08-03T07:23:07.974Z,2.80
2022-08-03T07:25:34.619Z,2.88
2022-08-03T07:28:02.917Z,2.80
2022-08-03T07:30:29.433Z,2.80
2022-08-03T07:32:55.952Z,2.97
2022-08-03T07:35:24.704Z,2.60
2022-08-03T07:37:54.412Z,2.80
2022-08-03T07:40:22.200Z,2.63
2022-08-03T07:42:48.791Z,3.30
2022-08-03T07:45:19.743Z,2.70
2022-08-03T07:47:53.650Z,2.92
2022-08-03T07:50:21.278Z,3.10
2022-08-03T07:52:48.063Z,3.20
2022-08-03T07:55:14.568Z,2.45
2022-08-03T07:57:41.207Z,3.05
2022-08-03T08:00:14.355Z,2.95
2022-08-03T08:02:41.531Z,3.03
2022-08-03T08:05:08.571Z,2.65
2022-08-03T08:07:35.075Z,2.80
2022-08-03T08:10:01.476Z,4.00
2022-08-03T08:12:28.140Z,2.78
2022-08-03T08:14:54.642Z,3.28
2022-08-03T08:17:21.167Z,2.80
2022-08-03T08:19:51.562Z,3.47
2022-08-03T08:22:26.544Z,3.38
2022-08-03T08:24:58.489Z,2.85
2022-08-03T08:28:29.372Z,3.10
2022-08-03T08:30:26.682Z,3.45
2022-08-03T08:32:58.322Z,3.00
2022-08-03T08:35:29.972Z,3.65
2022-08-03T08:37:56.612Z,3.78
2022-08-03T08:40:25.525Z,3.78
2022-08-03T08:42:58.502Z,3.40
2022-08-03T08:45:26.460Z,3.28
2022-08-03T08:47:59.763Z,3.78
2022-08-03T08:50:28.752Z,3.28
2022-08-03T08:52:56.231Z,3.20
2022-08-03T08:55:23.461Z,3.63
2022-08-03T08:57:53.181Z,3.80
2022-08-03T09:00:20.494Z,3.50
2022-08-03T09:02:47.230Z,3.65
2022-08-03T09:05:20.874Z,3.30
2022-08-03T09:07:54.279Z,3.78
2022-08-03T09:10:22.010Z,3.50
2022-08-03T09:12:51.258Z,4.15
2022-08-03T09:15:31.170Z,3.60
2022-08-03T09:18:00.254Z,3.20
2022-08-03T09:20:29.502Z,3.33
2022-08-03T09:22:58.914Z,3.42
2022-08-03T09:25:32.755Z,4.00
2022-08-03T09:28:11.094Z,3.70
2022-08-03T09:30:43.610Z,3.63
2022-08-03T09:33:12.366Z,3.58
2022-08-03T09:35:58.508Z,3.38
2022-08-03T09:38:28.336Z,3.80
2022-08-03T09:40:59.542Z,4.00
2022-08-03T09:43:27.558Z,3.65
2022-08-03T09:46:03.383Z,3.38
2022-08-03T09:48:31.107Z,4.30
2022-08-03T09:51:12.933Z,3.05
2022-08-03T09:53:58.773Z,3.70
2022-08-03T09:56:47.171Z,3.40
2022-08-03T09:59:26.707Z,4.13
2022-08-03T10:01:54.505Z,3.38
2022-08-03T10:04:21.556Z,3.75
2022-08-03T10:07:03.398Z,3.45
2022-08-03T10:09:30.014Z,4.18
2022-08-03T10:11:56.746Z,4.30
2022-08-03T10:14:23.679Z,3.92
2022-08-03T10:16:50.599Z,4.07
2022-08-03T10:19:17.420Z,4.05
2022-08-03T10:21:51.195Z,4.35
2022-08-03T10:24:21.201Z,4.07
2022-08-03T10:26:49.926Z,4.53
2022-08-03T10:29:27.373Z,3.95
2022-08-03T10:31:58.749Z,4.55
2022-08-03T10:34:34.989Z,4.60
2022-08-03T10:37:05.351Z,4.10
2022-08-03T10:39:32.082Z,4.65
2022-08-03T10:41:59.869Z,5.30
2022-08-03T10:44:37.714Z,4.50
2022-08-03T10:47:04.576Z,4.00
2022-08-03T10:49:34.830Z,5.00
2022-08-03T10:52:02.858Z,4.30
2022-08-03T10:55:10.076Z,4.30
2022-08-03T10:57:49.660Z,4.38
2022-08-03T11:00:18.503Z,5.05
2022-08-03T11:03:06.938Z,4.68
2022-08-03T11:05:38.467Z,4.55
2022-08-03T11:08:22.219Z,4.43
2022-08-03T11:10:50.155Z,4.75
2022-08-03T11:13:19.216Z,4.63
2022-08-03T11:15:47.862Z,4.70
2022-08-03T11:18:14.911Z,4.80
2022-08-03T11:20:59.472Z,3.95
2022-08-03T11:24:03.072Z,4.57
2022-08-03T11:26:33.308Z,4.07
2022-08-03T11:29:27.323Z,4.07
2022-08-03T11:34:20.258Z,4.68
2022-08-03T11:37:21.742Z,4.35
2022-08-03T11:39:50.567Z,4.25
2022-08-03T11:42:23.135Z,5.03
2022-08-03T11:45:00.232Z,4.70
2022-08-03T11:47:28.118Z,4.97
2022-08-03T11:49:57.443Z,4.57
2022-08-03T11:52:26.930Z,4.03
2022-08-03T11:54:56.949Z,4.80
2022-08-03T11:58:58.211Z,3.80
2022-08-03T12:00:29.012Z,4.00
2022-08-03T12:03:12.134Z,4.10
2022-08-03T12:05:51.086Z,3.97
2022-08-03T12:08:39.271Z,4.35
2022-08-03T12:11:09.039Z,3.35
2022-08-03T12:14:44.868Z,4.85
2022-08-03T12:16:32.323Z,4.10
2022-08-03T12:18:59.867Z,4.03
2022-08-03T12:21:26.733Z,4.35
2022-08-03T12:24:00.199Z,4.75
2022-08-03T12:26:28.150Z,4.57
2022-08-03T12:28:54.699Z,3.95
2022-08-03T12:31:21.254Z,3.95
2022-08-03T12:33:58.933Z,4.40
2022-08-03T12:36:26.575Z,4.20
2022-08-03T12:39:02.302Z,4.25
2022-08-03T12:41:35.134Z,4.13
2022-08-03T12:44:06.841Z,4.57
2022-08-03T12:46:41.656Z,4.60
2022-08-03T12:49:14.998Z,4.00
2022-08-03T12:51:44.494Z,4.10
2022-08-03T12:54:17.043Z,3.95
2022-08-03T12:57:05.952Z,3.53
2022-08-03T12:59:45.204Z,3.75
2022-08-03T13:02:23.620Z,3.75
2022-08-03T13:04:51.083Z,3.83
2022-08-03T13:07:18.377Z,4.35
2022-08-03T13:09:48.233Z,3.45
2022-08-03T13:12:21.000Z,4.00
2022-08-03T13:14:49.540Z,3.80
2022-08-03T13:17:19.588Z,4.32
2022-08-03T13:19:47.203Z,5.20
2022-08-03T13:22:22.172Z,4.53
2022-08-03T13:24:50.645Z,3.72
2022-08-03T13:28:01.404Z,4.03
2022-08-03T13:30:04.847Z,5.47
2022-08-03T13:32:31.352Z,4.45
2022-08-03T13:34:58.158Z,4.60
2022-08-03T13:37:25.362Z,4.70
2022-08-03T13:39:58.787Z,5.43
2022-08-03T13:42:31.416Z,4.55
2022-08-03T13:44:58.882Z,4.55
2022-08-03T13:47:25.842Z,4.78
2022-08-03T13:50:00.447Z,5.43
2022-08-03T13:52:30.247Z,4.80
2022-08-03T13:54:56.750Z,4.55
2022-08-03T13:58:04.253Z,5.47
2022-08-03T14:00:10.310Z,4.85
2022-08-03T14:02:37.097Z,4.32
2022-08-03T14:05:03.810Z,4.68
2022-08-03T14:07:30.303Z,5.03
2022-08-03T14:09:56.924Z,4.63
2022-08-03T14:12:23.432Z,4.85
2022-08-03T14:14:50.007Z,5.07
2022-08-03T14:17:16.740Z,4.68
2022-08-03T14:19:53.503Z,4.38
2022-08-03T14:22:20.990Z,4.22
2022-08-03T14:24:47.511Z,3.88
2022-08-03T14:27:15.789Z,4.75
2022-08-03T14:29:42.304Z,5.07
2022-08-03T14:32:11.974Z,4.32
2022-08-03T14:34:39.449Z,4.57
2022-08-03T14:37:05.939Z,3.88
2022-08-03T14:42:20.302Z,4.47
2022-08-03T14:44:46.974Z,4.80
2022-08-03T14:47:13.555Z,4.35
2022-08-03T14:50:31.257Z,5.18
2022-08-03T14:52:26.551Z,5.40
2022-08-03T14:54:53.109Z,5.28
2022-08-03T14:57:19.839Z,6.25
2022-08-03T14:59:55.611Z,5.93
2022-08-03T15:02:24.719Z,5.80
2022-08-03T15:04:51.976Z,7.18
2022-08-03T15:07:19.086Z,8.02
2022-08-03T15:09:45.766Z,7.47
2022-08-03T15:12:12.297Z,8.50
2022-08-03T15:14:38.813Z,7.68
2022-08-03T15:17:05.515Z,8.70
2022-08-03T15:20:00.341Z,8.10
2022-08-03T15:22:20.463Z,7.60
2022-08-03T15:24:47.389Z,7.38
2022-08-03T15:27:13.901Z,8.90
2022-08-03T15:30:04.741Z,8.00
2022-08-03T15:32:27.082Z,7.93
2022-08-03T15:34:55.242Z,7.60
2022-08-03T15:37:21.822Z,6.22
2022-08-03T15:39:59.328Z,7.95
2022-08-03T15:42:30.657Z,7.57
2022-08-03T15:44:57.299Z,8.40
2022-08-03T15:47:23.821Z,8.40
2022-08-03T15:49:50.316Z,8.98
2022-08-03T15:52:16.842Z,9.48
2022-08-03T15:54:43.374Z,10.25
2022-08-03T15:57:09.873Z,9.57
2022-08-03T15:59:36.560Z,10.68
2022-08-03T16:02:03.234Z,9.10
2022-08-03T16:04:29.808Z,8.60
2022-08-03T16:06:56.309Z,10.63
2022-08-03T16:09:43.516Z,11.27
2022-08-03T16:12:11.832Z,10.20
2022-08-03T16:14:51.855Z,9.65
2022-08-03T16:17:20.202Z,9.32
2022-08-03T16:19:46.911Z,9.00
2022-08-03T16:22:14.479Z,8.43
2022-08-03T16:24:41.214Z,8.30
2022-08-03T16:27:17.651Z,8.30
2022-08-03T16:29:54.372Z,6.70
2022-08-03T16:32:21.019Z,8.43
2022-08-03T16:34:48.163Z,7.10
2022-08-03T16:37:37.789Z,7.88
2022-08-03T16:40:02.501Z,7.10
2022-08-03T16:42:29.040Z,7.32
2022-08-03T16:44:55.661Z,7.05
2022-08-03T16:47:22.932Z,7.57
2022-08-03T16:49:54.499Z,7.15
2022-08-03T16:52:23.365Z,6.40
2022-08-03T16:54:50.643Z,7.28
2022-08-03T16:57:58.304Z,7.63
2022-08-03T17:00:08.892Z,7.63
2022-08-03T17:02:36.384Z,7.68
2022-08-03T17:05:03.207Z,7.32
2022-08-03T17:07:30.395Z,7.90
2022-08-03T17:09:57.478Z,7.45
2022-08-03T17:12:27.092Z,7.10
2022-08-03T17:14:54.319Z,6.90
2022-08-03T17:17:53.739Z,7.78
2022-08-03T17:20:19.072Z,5.82
2022-08-03T17:22:56.410Z,5.93
2022-08-03T17:26:01.331Z,5.80
2022-08-03T17:28:50.296Z,6.15
2022-08-03T17:31:32.220Z,6.43
2022-08-03T17:34:00.790Z,6.40
2022-08-03T17:36:47.659Z,7.30
2022-08-03T17:39:16.587Z,7.68
2022-08-03T17:41:49.153Z,6.85
2022-08-03T17:44:35.240Z,7.35
2022-08-03T17:47:04.693Z,8.27
2022-08-03T17:49:33.134Z,7.20
2022-08-03T17:52:54.749Z,8.38
2022-08-03T17:58:14.937Z,7.85
2022-08-03T18:01:02.188Z,7.65
2022-08-03T18:03:57.988Z,7.63
2022-08-03T18:06:29.523Z,7.65
2022-08-03T18:09:04.837Z,7.13
2022-08-03T18:11:46.096Z,6.90
2022-08-03T18:14:23.859Z,7.85
2022-08-03T18:16:57.848Z,7.57
2022-08-03T18:20:03.506Z,7.60
2022-08-03T18:22:14.199Z,7.35
2022-08-03T18:24:42.186Z,6.15
2022-08-03T18:27:10.628Z,8.05
2022-08-03T18:29:37.441Z,6.75
2022-08-03T18:32:11.388Z,6.60
2022-08-03T18:34:41.132Z,6.57
2022-08-03T18:37:25.247Z,6.63
2022-08-03T18:39:55.008Z,6.82
2022-08-03T18:45:54.893Z,6.65
2022-08-03T18:48:02.411Z,6.80
2022-08-03T18:50:41.195Z,8.05
2022-08-03T18:53:20.076Z,8.45
2022-08-03T18:56:08.216Z,6.90
2022-08-03T18:58:52.296Z,6.35
2022-08-03T19:02:00.881Z,7.53
2022-08-03T19:04:27.482Z,7.32
2022-08-03T19:07:08.315Z,6.35
2022-08-03T19:09:49.625Z,5.65
2022-08-03T19:12:28.209Z,5.82
2022-08-03T19:15:03.064Z,5.63
2022-08-03T19:17:29.915Z,5.75
2022-08-03T19:19:57.708Z,7.13
2022-08-03T19:22:27.173Z,6.53
2022-08-03T19:24:57.862Z,6.65
2022-08-03T19:27:26.884Z,5.53
2022-08-03T19:29:58.718Z,5.65
2022-08-03T19:32:28.855Z,6.65
2022-08-03T19:34:56.845Z,5.00
2022-08-03T19:37:27.490Z,4.95
2022-08-03T19:40:10.933Z,5.40
2022-08-03T19:42:41.352Z,5.97
2022-08-03T19:45:11.461Z,6.85
2022-08-03T19:47:52.693Z,6.43
2022-08-03T19:50:20.359Z,6.28
2022-08-03T19:52:47.857Z,6.25
2022-08-03T19:55:15.795Z,5.68
2022-08-03T19:57:45.689Z,5.03
2022-08-03T20:00:14.003Z,4.75
2022-08-03T20:02:41.260Z,5.60
2022-08-03T20:05:14.732Z,5.55
2022-08-03T20:07:42.612Z,5.55
2022-08-03T20:10:15.346Z,5.45
2022-08-03T20:12:43.327Z,5.40
2022-08-03T20:15:10.628Z,4.85
2022-08-03T20:17:56.884Z,5.55
2022-08-03T20:20:29.564Z,5.18
2022-08-03T20:22:58.013Z,4.93
2022-08-03T20:25:38.125Z,5.13
2022-08-03T20:28:13.476Z,6.10
2022-08-03T20:33:46.733Z,3.80
2022-08-03T20:36:17.842Z,5.78
2022-08-03T20:38:46.960Z,6.00
2022-08-03T20:41:17.014Z,6.90
2022-08-03T20:43:43.942Z,6.50
2022-08-03T20:46:31.293Z,5.88
2022-08-03T20:48:58.871Z,6.43
2022-08-03T20:51:49.926Z,6.45
2022-08-03T20:54:28.736Z,5.22
2022-08-03T20:56:57.705Z,4.85
2022-08-03T20:59:28.778Z,4.60
2022-08-03T21:01:57.066Z,4.32
2022-08-03T21:04:24.215Z,5.32
2022-08-03T21:07:01.044Z,5.40
2022-08-03T21:09:39.950Z,5.63
2022-08-03T21:12:13.035Z,5.85
2022-08-03T21:12:58.870Z,6.20
2022-08-03T21:13:07.090Z,5.32
2022-08-03T21:15:02.420Z,5.40
2022-08-03T21:17:40.440Z,5.03
2022-08-03T21:20:09.518Z,4.47
2022-08-03T21:22:38.065Z,5.70
2022-08-03T21:25:09.187Z,4.35
2022-08-03T21:27:36.925Z,5.97
2022-08-03T21:30:06.720Z,6.72
2022-08-03T21:32:33.592Z,5.72
2022-08-03T21:35:01.313Z,5.03
2022-08-03T21:37:28.949Z,4.10
2022-08-03T21:39:56.674Z,2.13
2022-08-03T21:42:26.757Z,2.50
2022-08-03T21:44:55.503Z,2.80
2022-08-03T21:47:23.525Z,2.65
2022-08-03T21:50:06.384Z,2.63
2022-08-03T21:52:40.034Z,2.10
2022-08-03T21:55:07.307Z,2.10
2022-08-03T21:57:34.688Z,4.80
2022-08-03T22:00:16.690Z,5.00
2022-08-03T22:02:53.189Z,5.90
2022-08-03T22:05:42.903Z,6.32
2022-08-03T22:08:12.172Z,6.07
2022-08-03T22:10:39.017Z,6.20
2022-08-03T22:13:05.596Z,5.90
2022-08-03T22:15:32.459Z,4.25
2022-08-03T22:17:59.173Z,4.50
2022-08-03T22:20:25.998Z,5.70
2022-08-03T22:22:55.869Z,4.70
2022-08-03T22:25:29.738Z,5.18
2022-08-03T22:30:23.600Z,5.00
2022-08-03T22:32:52.963Z,5.78
2022-08-03T22:35:20.738Z,4.97
2022-08-03T22:37:49.125Z,4.93
2022-08-03T22:40:16.683Z,4.90
2022-08-03T22:42:45.659Z,5.22
2022-08-03T22:45:12.476Z,4.88
2022-08-03T22:47:59.783Z,5.65
2022-08-03T22:50:32.562Z,6.63
2022-08-03T22:53:00.355Z,6.55
2022-08-03T22:55:27.293Z,4.57
2022-08-03T22:57:56.119Z,4.43
2022-08-03T23:00:23.364Z,3.38
2022-08-03T23:02:51.280Z,3.47
2022-08-03T23:06:01.185Z,2.53
2022-08-03T23:08:10.016Z,3.08
2022-08-03T23:10:37.173Z,3.20
2022-08-03T23:13:03.673Z,5.18
2022-08-03T23:15:30.648Z,5.50
2022-08-03T23:17:58.745Z,4.60
2022-08-03T23:20:26.836Z,5.78
2022-08-03T23:22:54.811Z,6.03
2022-08-03T23:25:21.959Z,5.65
2022-08-03T23:27:49.300Z,6.15
2022-08-03T23:30:34.052Z,5.47
2022-08-03T23:33:01.040Z,6.75
2022-08-03T23:36:27.886Z,4.70
2022-08-03T23:38:36.832Z,4.57
2022-08-03T23:41:04.832Z,5.88
2022-08-03T23:43:51.115Z,4.75
2022-08-03T23:46:19.746Z,6.60
2022-08-03T23:48:46.381Z,6.00
2022-08-03T23:51:42.408Z,6.03
2022-08-03T23:54:21.018Z,6.63
2022-08-03T23:57:28.897Z,7.65
